Airey, Mississippi
Current Conditions -  °F | °C
As of 4:53 PM on Friday 28 Nov 2014 (Local Time) from KGPT Reporting Station
Clear Clear  
Wind Chill: 11°   Ceiling: Unl
Heat Index: 11°   Visibility: 10mi
Dew Point:   Wind: 3mph
Humidity: 56%   Direction: 170°S
Pressure: 30.3"   Gusts: NA
Location:  30.603°N, 89.0932°W
Report Text: KGPT 282253Z 17003KT 10SM CLR 11/02 A3030 RMK AO2 SLP261 T01060022
Loading
Personal Weather Stations






























Interactive Weather Map New forecast layout! Learn more

10-Day Weather Forecast

Advertisements
Track Severe Weather on mobile